sensor_id;sensor_type;location;lat;lon;timestamp;temperature;humidity
42333;DHT22;27984;51.476;5.702;2023-04-03T19:10:24;7.20;88.20
42333;DHT22;27984;51.476;5.702;2023-04-03T19:12:51;6.50;87.70
42333;DHT22;27984;51.476;5.702;2023-04-03T19:15:22;6.30;87.60
42333;DHT22;27984;51.476;5.702;2023-04-03T19:17:49;6.30;89.40
42333;DHT22;27984;51.476;5.702;2023-04-03T19:20:14;6.20;89.90
42333;DHT22;27984;51.476;5.702;2023-04-03T19:22:40;6.10;89.40
42333;DHT22;27984;51.476;5.702;2023-04-03T19:25:07;6.20;91.30
42333;DHT22;27984;51.476;5.702;2023-04-03T19:27:34;6.00;89.70
42333;DHT22;27984;51.476;5.702;2023-04-03T19:30:01;6.00;90.50
42333;DHT22;27984;51.476;5.702;2023-04-03T19:32:26;5.90;91.10
42333;DHT22;27984;51.476;5.702;2023-04-03T19:34:52;5.80;90.60
42333;DHT22;27984;51.476;5.702;2023-04-03T19:37:17;5.80;90.90
42333;DHT22;27984;51.476;5.702;2023-04-03T19:39:44;5.70;91.50
42333;DHT22;27984;51.476;5.702;2023-04-03T19:42:10;5.70;92.00
42333;DHT22;27984;51.476;5.702;2023-04-03T19:44:36;5.60;91.80
42333;DHT22;27984;51.476;5.702;2023-04-03T19:47:03;5.60;91.90
42333;DHT22;27984;51.476;5.702;2023-04-03T19:49:29;5.50;92.00
42333;DHT22;27984;51.476;5.702;2023-04-03T19:51:54;5.50;92.60
42333;DHT22;27984;51.476;5.702;2023-04-03T19:54:22;5.50;92.40
42333;DHT22;27984;51.476;5.702;2023-04-03T19:56:48;5.40;92.70
42333;DHT22;27984;51.476;5.702;2023-04-03T19:59:13;5.30;92.40
42333;DHT22;27984;51.476;5.702;2023-04-03T20:01:40;5.30;92.90
42333;DHT22;27984;51.476;5.702;2023-04-03T20:04:06;5.20;92.70
42333;DHT22;27984;51.476;5.702;2023-04-03T20:06:32;5.20;93.70
42333;DHT22;27984;51.476;5.702;2023-04-03T20:08:57;5.10;93.30
42333;DHT22;27984;51.476;5.702;2023-04-03T20:11:23;5.10;93.90
42333;DHT22;27984;51.476;5.702;2023-04-03T20:13:51;5.10;94.20
42333;DHT22;27984;51.476;5.702;2023-04-03T20:16:18;5.10;94.50
42333;DHT22;27984;51.476;5.702;2023-04-03T20:18:45;5.00;94.10
42333;DHT22;27984;51.476;5.702;2023-04-03T20:21:10;5.00;94.20
42333;DHT22;27984;51.476;5.702;2023-04-03T20:23:36;5.00;94.40
42333;DHT22;27984;51.476;5.702;2023-04-03T20:26:04;4.90;94.40
42333;DHT22;27984;51.476;5.702;2023-04-03T20:28:30;4.90;94.90
42333;DHT22;27984;51.476;5.702;2023-04-03T20:30:55;4.90;94.50
42333;DHT22;27984;51.476;5.702;2023-04-03T20:33:22;4.90;94.80
42333;DHT22;27984;51.476;5.702;2023-04-03T20:35:48;4.80;94.60
42333;DHT22;27984;51.476;5.702;2023-04-03T20:38:15;4.80;94.60
42333;DHT22;27984;51.476;5.702;2023-04-03T20:40:41;4.80;94.90
42333;DHT22;27984;51.476;5.702;2023-04-03T20:43:07;4.70;95.50
42333;DHT22;27984;51.476;5.702;2023-04-03T20:45:33;4.70;95.80
42333;DHT22;27984;51.476;5.702;2023-04-03T20:48:00;4.60;96.30
42333;DHT22;27984;51.476;5.702;2023-04-03T20:50:28;4.60;96.50
42333;DHT22;27984;51.476;5.702;2023-04-03T20:52:55;4.60;96.50
42333;DHT22;27984;51.476;5.702;2023-04-03T20:55:22;4.50;96.20
42333;DHT22;27984;51.476;5.702;2023-04-03T20:57:48;4.50;97.30
42333;DHT22;27984;51.476;5.702;2023-04-03T21:00:15;4.50;97.00
42333;DHT22;27984;51.476;5.702;2023-04-03T21:02:47;4.40;97.80
42333;DHT22;27984;51.476;5.702;2023-04-03T21:05:12;4.40;97.10
42333;DHT22;27984;51.476;5.702;2023-04-03T21:19:21;4.20;98.20
42333;DHT22;27984;51.476;5.702;2023-04-03T21:21:46;4.20;98.70
42333;DHT22;27984;51.476;5.702;2023-04-03T21:24:15;4.10;99.30
42333;DHT22;27984;51.476;5.702;2023-04-03T21:26:41;4.00;98.40
42333;DHT22;27984;51.476;5.702;2023-04-03T21:29:09;4.00;99.10
42333;DHT22;27984;51.476;5.702;2023-04-03T21:31:57;4.00;99.30
42333;DHT22;27984;51.476;5.702;2023-04-03T21:34:27;4.00;99.70
42333;DHT22;27984;51.476;5.702;2023-04-03T21:36:54;3.90;99.90
42333;DHT22;27984;51.476;5.702;2023-04-03T21:39:20;3.80;99.90
42333;DHT22;27984;51.476;5.702;2023-04-03T21:41:47;3.70;99.90
42333;DHT22;27984;51.476;5.702;2023-04-03T21:44:13;3.70;99.90
42333;DHT22;27984;51.476;5.702;2023-04-03T21:46:38;3.60;99.90
42333;DHT22;27984;51.476;5.702;2023-04-03T21:49:04;3.60;99.90
42333;DHT22;27984;51.476;5.702;2023-04-03T21:51:29;3.60;99.90
42333;DHT22;27984;51.476;5.702;2023-04-03T21:53:55;3.60;99.90
42333;DHT22;27984;51.476;5.702;2023-04-03T21:56:22;3.60;99.90
42333;DHT22;27984;51.476;5.702;2023-04-03T21:58:49;3.60;99.90
42333;DHT22;27984;51.476;5.702;2023-04-03T22:01:15;3.50;99.90
42333;DHT22;27984;51.476;5.702;2023-04-03T22:03:43;3.50;99.90
42333;DHT22;27984;51.476;5.702;2023-04-03T22:06:10;3.30;99.90
42333;DHT22;27984;51.476;5.702;2023-04-03T22:08:36;3.30;99.90
42333;DHT22;27984;51.476;5.702;2023-04-03T22:11:06;3.30;99.90
42333;DHT22;27984;51.476;5.702;2023-04-03T22:13:32;3.20;99.90
42333;DHT22;27984;51.476;5.702;2023-04-03T22:15:58;3.20;99.90
42333;DHT22;27984;51.476;5.702;2023-04-03T22:18:24;3.10;99.90
42333;DHT22;27984;51.476;5.702;2023-04-03T22:20:50;3.10;99.90
42333;DHT22;27984;51.476;5.702;2023-04-03T22:23:17;3.10;99.90
42333;DHT22;27984;51.476;5.702;2023-04-03T22:25:43;3.20;99.90
42333;DHT22;27984;51.476;5.702;2023-04-03T22:28:08;3.20;99.90
42333;DHT22;27984;51.476;5.702;2023-04-03T22:30:34;3.30;99.90
42333;DHT22;27984;51.476;5.702;2023-04-03T22:33:00;3.30;99.90
42333;DHT22;27984;51.476;5.702;2023-04-03T22:35:25;3.20;99.90
42333;DHT22;27984;51.476;5.702;2023-04-03T22:37:51;3.10;99.90
42333;DHT22;27984;51.476;5.702;2023-04-03T22:40:17;3.10;99.90
42333;DHT22;27984;51.476;5.702;2023-04-03T22:42:49;2.90;99.90
42333;DHT22;27984;51.476;5.702;2023-04-03T22:45:15;2.90;99.90
42333;DHT22;27984;51.476;5.702;2023-04-03T22:47:40;2.90;99.90
42333;DHT22;27984;51.476;5.702;2023-04-03T22:50:07;2.80;99.90
42333;DHT22;27984;51.476;5.702;2023-04-03T22:52:33;2.70;99.90
42333;DHT22;27984;51.476;5.702;2023-04-03T22:54:58;2.60;99.90
42333;DHT22;27984;51.476;5.702;2023-04-03T22:57:24;2.60;99.90
42333;DHT22;27984;51.476;5.702;2023-04-03T22:59:49;2.60;99.90
42333;DHT22;27984;51.476;5.702;2023-04-03T23:02:15;2.50;99.90
42333;DHT22;27984;51.476;5.702;2023-04-03T23:04:41;2.40;99.90
42333;DHT22;27984;51.476;5.702;2023-04-03T23:07:06;2.40;99.90
42333;DHT22;27984;51.476;5.702;2023-04-03T23:09:32;2.40;99.90
42333;DHT22;27984;51.476;5.702;2023-04-03T23:11:58;2.40;99.90
42333;DHT22;27984;51.476;5.702;2023-04-03T23:14:23;2.40;99.90
42333;DHT22;27984;51.476;5.702;2023-04-03T23:16:49;2.30;99.90
42333;DHT22;27984;51.476;5.702;2023-04-03T23:19:15;2.30;99.90
42333;DHT22;27984;51.476;5.702;2023-04-03T23:21:41;2.20;99.90
42333;DHT22;27984;51.476;5.702;2023-04-03T23:24:07;2.20;99.90
42333;DHT22;27984;51.476;5.702;2023-04-03T23:26:32;2.10;99.90
42333;DHT22;27984;51.476;5.702;2023-04-03T23:28:58;2.10;99.90
42333;DHT22;27984;51.476;5.702;2023-04-03T23:31:24;2.10;99.90
42333;DHT22;27984;51.476;5.702;2023-04-03T23:33:50;2.00;99.90
42333;DHT22;27984;51.476;5.702;2023-04-03T23:36:15;2.00;99.90
42333;DHT22;27984;51.476;5.702;2023-04-03T23:38:41;2.00;99.90
42333;DHT22;27984;51.476;5.702;2023-04-03T23:41:07;2.00;99.90
42333;DHT22;27984;51.476;5.702;2023-04-03T23:43:33;1.90;99.90
42333;DHT22;27984;51.476;5.702;2023-04-03T23:45:59;1.90;99.90
42333;DHT22;27984;51.476;5.702;2023-04-03T23:48:24;1.90;99.90
42333;DHT22;27984;51.476;5.702;2023-04-03T23:50:50;1.80;99.90
42333;DHT22;27984;51.476;5.702;2023-04-03T23:53:16;1.70;99.90
42333;DHT22;27984;51.476;5.702;2023-04-03T23:55:42;1.70;99.90
42333;DHT22;27984;51.476;5.702;2023-04-03T23:58:08;1.70;99.90
